createdAt,value
2023-04-21T00:02:07.512Z,6.80
2023-04-21T00:04:35.977Z,6.78
2023-04-21T00:07:05.776Z,6.75
2023-04-21T00:09:34.028Z,6.84
2023-04-21T00:12:02.257Z,6.98
2023-04-21T00:14:30.553Z,6.97
2023-04-21T00:17:00.403Z,6.96
2023-04-21T00:19:28.970Z,6.94
2023-04-21T00:21:59.076Z,6.89
2023-04-21T00:24:28.883Z,6.95
2023-04-21T00:26:57.248Z,6.96
2023-04-21T00:29:25.902Z,6.95
2023-04-21T00:31:54.256Z,6.96
2023-04-21T00:34:22.557Z,6.98
2023-04-21T00:36:50.747Z,6.93
2023-04-21T00:39:19.255Z,6.91
2023-04-21T00:41:49.829Z,6.94
2023-04-21T00:44:18.146Z,6.91
2023-04-21T00:46:46.469Z,6.90
2023-04-21T00:49:16.360Z,6.88
2023-04-21T00:51:44.826Z,6.91
2023-04-21T00:54:13.432Z,7.05
2023-04-21T00:56:41.697Z,7.17
2023-04-21T00:59:11.453Z,7.24
2023-04-21T01:01:42.391Z,7.24
2023-04-21T01:04:11.331Z,7.24
2023-04-21T01:06:39.833Z,7.29
2023-04-21T01:09:08.172Z,7.33
2023-04-21T01:11:38.640Z,7.43
2023-04-21T01:14:08.948Z,7.45
2023-04-21T01:16:40.388Z,7.43
2023-04-21T01:19:08.733Z,7.48
2023-04-21T01:21:41.728Z,7.50
2023-04-21T01:24:10.128Z,7.52
2023-04-21T01:26:38.460Z,7.59
2023-04-21T01:29:06.832Z,7.59
2023-04-21T01:31:35.273Z,7.56
2023-04-21T01:34:05.352Z,7.57
2023-04-21T01:36:33.731Z,7.56
2023-04-21T01:39:04.213Z,7.52
2023-04-21T01:41:32.735Z,7.39
2023-04-21T01:44:01.206Z,7.44
2023-04-21T01:46:29.525Z,7.42
2023-04-21T01:48:58.025Z,7.40
2023-04-21T01:51:27.718Z,7.47
2023-04-21T01:53:55.966Z,7.47
2023-04-21T01:56:26.871Z,7.39
2023-04-21T01:58:56.013Z,7.39
2023-04-21T02:01:25.085Z,7.41
2023-04-21T02:03:53.554Z,7.24
2023-04-21T02:06:21.924Z,7.30
2023-04-21T02:08:50.232Z,7.34
2023-04-21T02:11:18.545Z,7.34
2023-04-21T02:13:48.133Z,7.27
2023-04-21T02:16:16.482Z,7.25
2023-04-21T02:18:48.411Z,7.29
2023-04-21T02:21:16.716Z,7.23
2023-04-21T02:23:44.953Z,7.24
2023-04-21T02:26:13.180Z,7.18
2023-04-21T02:28:41.422Z,7.15
2023-04-21T02:31:11.265Z,7.22
2023-04-21T02:33:39.726Z,7.16
2023-04-21T02:36:08.412Z,7.19
2023-04-21T02:38:36.678Z,7.23
2023-04-21T02:41:05.066Z,7.22
2023-04-21T02:43:35.168Z,7.22
2023-04-21T02:46:07.655Z,7.24
2023-04-21T02:48:37.826Z,7.20
2023-04-21T02:51:12.964Z,7.19
2023-04-21T02:53:41.930Z,7.23
2023-04-21T02:56:10.615Z,7.22
2023-04-21T02:58:39.825Z,7.19
2023-04-21T03:01:08.260Z,7.10
2023-04-21T03:03:37.963Z,7.17
2023-04-21T03:06:07.236Z,7.11
2023-04-21T03:08:35.853Z,7.13
2023-04-21T03:11:04.151Z,7.12
2023-04-21T03:13:32.397Z,7.13
2023-04-21T03:16:00.834Z,7.13
2023-04-21T03:18:29.158Z,7.16
2023-04-21T03:21:01.992Z,7.17
2023-04-21T03:23:30.325Z,7.09
2023-04-21T03:25:58.582Z,7.00
2023-04-21T03:28:27.006Z,7.02
2023-04-21T03:30:55.388Z,7.14
2023-04-21T03:33:23.600Z,7.05
2023-04-21T03:35:51.956Z,7.07
2023-04-21T03:38:21.775Z,7.00
2023-04-21T03:40:50.382Z,7.07
2023-04-21T03:43:18.649Z,6.99
2023-04-21T03:45:47.687Z,7.00
2023-04-21T03:48:16.071Z,6.95
2023-04-21T03:50:44.310Z,6.94
2023-04-21T03:53:12.868Z,6.87
2023-04-21T03:55:42.518Z,7.08
2023-04-21T03:58:10.733Z,7.00
2023-04-21T04:00:39.065Z,7.02
2023-04-21T04:03:07.648Z,7.01
2023-04-21T04:05:37.290Z,7.09
2023-04-21T04:08:06.540Z,7.08
2023-04-21T04:10:34.803Z,7.02
2023-04-21T04:13:04.414Z,7.00
2023-04-21T04:15:32.832Z,7.03
2023-04-21T04:18:01.733Z,6.87
2023-04-21T04:20:30.319Z,6.89
2023-04-21T04:22:58.616Z,6.94
2023-04-21T04:25:27.230Z,6.95
2023-04-21T04:27:55.667Z,6.96
2023-04-21T04:30:28.010Z,7.01
2023-04-21T04:32:57.833Z,6.91
2023-04-21T04:35:26.194Z,6.85
2023-04-21T04:37:55.068Z,6.94
2023-04-21T04:40:23.526Z,6.91
2023-04-21T04:42:52.415Z,6.90
2023-04-21T04:45:21.399Z,6.90
2023-04-21T04:47:51.830Z,6.74
2023-04-21T04:50:20.319Z,6.74
2023-04-21T04:52:49.770Z,6.66
2023-04-21T04:55:18.823Z,6.70
2023-04-21T04:57:47.001Z,6.67
2023-04-21T05:00:15.865Z,6.70
2023-04-21T05:02:44.269Z,6.65
2023-04-21T05:05:14.269Z,6.56
2023-04-21T05:07:42.684Z,6.67
2023-04-21T05:10:11.129Z,6.74
2023-04-21T05:12:39.375Z,6.76
2023-04-21T05:15:08.699Z,6.84
2023-04-21T05:17:36.982Z,6.86
2023-04-21T05:20:06.004Z,6.85
2023-04-21T05:22:38.210Z,6.94
2023-04-21T05:25:07.571Z,6.88
2023-04-21T05:27:35.802Z,6.94
2023-04-21T05:30:04.090Z,6.96
2023-04-21T05:32:32.681Z,7.01
2023-04-21T05:35:01.178Z,6.93
2023-04-21T05:37:29.700Z,6.97
2023-04-21T05:39:59.423Z,7.04
2023-04-21T05:42:27.696Z,7.03
2023-04-21T05:44:56.022Z,7.02
2023-04-21T05:47:24.272Z,7.09
2023-04-21T05:49:53.877Z,7.18
2023-04-21T05:52:22.575Z,7.30
2023-04-21T05:54:50.871Z,7.34
2023-04-21T05:57:20.505Z,7.44
2023-04-21T05:59:48.792Z,7.44
2023-04-21T06:02:17.179Z,7.52
2023-04-21T06:04:45.661Z,7.69
2023-04-21T06:07:14.796Z,7.77
2023-04-21T06:09:44.239Z,7.87
2023-04-21T06:12:12.465Z,7.81
2023-04-21T06:14:42.059Z,7.78
2023-04-21T06:17:10.426Z,7.71
2023-04-21T06:19:40.834Z,7.81
2023-04-21T06:22:10.334Z,7.74
2023-04-21T06:24:38.607Z,7.86
2023-04-21T06:27:11.858Z,7.96
2023-04-21T06:29:42.694Z,7.94
2023-04-21T06:32:11.415Z,7.90
2023-04-21T06:34:39.753Z,7.99
2023-04-21T06:37:08.007Z,8.04
2023-04-21T06:39:36.437Z,8.11
2023-04-21T06:42:04.969Z,8.19
2023-04-21T06:44:41.065Z,8.29
2023-04-21T06:47:09.695Z,8.50
2023-04-21T06:49:38.219Z,8.41
2023-04-21T06:52:06.483Z,8.57
2023-04-21T06:54:34.787Z,8.49
2023-04-21T06:57:03.257Z,8.61
2023-04-21T06:59:31.474Z,8.53
2023-04-21T07:02:01.253Z,8.50
2023-04-21T07:04:32.303Z,8.57
2023-04-21T07:07:03.066Z,8.60
2023-04-21T07:09:33.855Z,8.62
2023-04-21T07:12:02.737Z,8.76
2023-04-21T07:14:31.037Z,9.06
2023-04-21T07:17:00.767Z,9.04
2023-04-21T07:19:29.069Z,9.17
2023-04-21T07:21:58.268Z,9.20
2023-04-21T07:24:26.518Z,9.22
2023-04-21T07:26:54.812Z,9.32
2023-04-21T07:29:23.102Z,9.35
2023-04-21T07:31:51.877Z,9.50
2023-04-21T07:34:21.528Z,9.50
2023-04-21T07:36:49.786Z,9.50
2023-04-21T07:39:18.266Z,9.36
2023-04-21T07:41:46.641Z,9.67
2023-04-21T07:44:15.141Z,9.74
2023-04-21T07:46:43.605Z,9.98
2023-04-21T07:49:11.941Z,10.06
2023-04-21T07:51:41.629Z,9.92
2023-04-21T07:54:10.147Z,10.15
2023-04-21T07:56:39.749Z,10.16
2023-04-21T07:59:08.131Z,10.35
2023-04-21T08:01:36.477Z,10.24
2023-04-21T08:04:04.825Z,10.09
2023-04-21T08:06:33.569Z,10.06
2023-04-21T08:09:03.607Z,10.41
2023-04-21T08:11:31.850Z,10.46
2023-04-21T08:14:00.140Z,10.80
2023-04-21T08:16:28.476Z,10.62
2023-04-21T08:18:56.890Z,10.74
2023-04-21T08:21:25.611Z,11.27
2023-04-21T08:23:55.628Z,11.05
2023-04-21T08:26:25.731Z,11.16
2023-04-21T08:28:54.247Z,11.40
2023-04-21T08:31:22.933Z,11.08
2023-04-21T08:34:01.184Z,11.19
2023-04-21T08:36:30.752Z,10.94
2023-04-21T08:38:59.196Z,11.24
2023-04-21T08:41:28.951Z,11.08
2023-04-21T08:43:57.217Z,11.15
2023-04-21T08:46:25.695Z,11.28
2023-04-21T08:48:55.437Z,11.62
2023-04-21T08:51:25.349Z,11.59
2023-04-21T08:53:55.589Z,11.68
2023-04-21T08:56:26.230Z,11.71
2023-04-21T08:58:55.968Z,11.97
2023-04-21T09:01:24.311Z,11.96
2023-04-21T09:03:52.850Z,12.12
2023-04-21T09:06:22.728Z,12.05
2023-04-21T09:08:56.002Z,12.04
2023-04-21T09:11:24.570Z,12.41
2023-04-21T09:13:53.014Z,12.42
2023-04-21T09:16:23.470Z,12.22
2023-04-21T09:18:52.180Z,12.17
2023-04-21T09:21:23.255Z,12.37
2023-04-21T09:23:53.553Z,12.75
2023-04-21T09:26:23.827Z,12.92
2023-04-21T09:28:53.278Z,12.95
2023-04-21T09:31:25.632Z,12.57
2023-04-21T09:33:59.672Z,12.93
2023-04-21T09:36:32.335Z,13.01
2023-04-21T09:39:29.137Z,13.37
2023-04-21T09:41:51.253Z,13.62
2023-04-21T09:44:21.446Z,13.45
2023-04-21T09:46:52.399Z,13.74
2023-04-21T09:49:24.099Z,13.83
2023-04-21T09:52:10.421Z,13.78
2023-04-21T09:54:50.788Z,13.89
2023-04-21T09:57:25.382Z,13.73
2023-04-21T09:59:58.952Z,14.00
2023-04-21T10:02:32.395Z,14.06
2023-04-21T10:05:01.139Z,14.08
2023-04-21T10:07:29.714Z,13.55
2023-04-21T10:09:59.294Z,13.37
2023-04-21T10:12:29.139Z,14.06
2023-04-21T10:14:58.041Z,14.57
2023-04-21T10:17:28.350Z,14.93
2023-04-21T10:19:58.302Z,14.73
2023-04-21T10:22:31.435Z,14.43
2023-04-21T10:25:01.145Z,14.48
2023-04-21T10:27:33.833Z,14.41
2023-04-21T10:30:20.403Z,14.85
2023-04-21T10:33:02.883Z,15.31
2023-04-21T10:36:02.369Z,15.23
2023-04-21T10:38:40.916Z,15.56
2023-04-21T10:41:27.998Z,15.56
2023-04-21T10:43:59.592Z,15.67
2023-04-21T10:46:35.508Z,15.23
2023-04-21T10:49:09.672Z,15.42
2023-04-21T10:52:06.507Z,15.37
2023-04-21T10:54:42.018Z,15.17
2023-04-21T10:57:12.129Z,15.55
2023-04-21T10:59:41.058Z,15.19
2023-04-21T11:02:12.062Z,15.92
2023-04-21T11:04:46.075Z,15.98
2023-04-21T11:07:17.193Z,15.74
2023-04-21T11:09:47.934Z,16.48
2023-04-21T11:12:19.824Z,16.64
2023-04-21T11:14:49.041Z,16.76
2023-04-21T11:17:19.018Z,16.30
2023-04-21T11:19:52.509Z,16.14
2023-04-21T11:22:23.484Z,15.96
2023-04-21T11:24:55.871Z,15.91
2023-04-21T11:27:24.687Z,16.12
2023-04-21T11:29:53.454Z,16.65
2023-04-21T11:32:22.510Z,16.34
2023-04-21T11:34:52.338Z,17.10
2023-04-21T11:37:25.995Z,16.91
2023-04-21T11:40:01.204Z,16.87
2023-04-21T11:42:29.937Z,16.45
2023-04-21T11:44:59.218Z,16.65
2023-04-21T11:47:28.964Z,17.31
2023-04-21T11:50:00.181Z,16.58
2023-04-21T11:52:30.948Z,16.45
2023-04-21T11:55:01.377Z,16.70
2023-04-21T11:57:31.226Z,16.63
2023-04-21T12:00:00.167Z,16.94
2023-04-21T12:02:30.973Z,17.01
2023-04-21T12:05:03.586Z,17.67
2023-04-21T12:07:32.998Z,17.56
2023-04-21T12:10:02.782Z,17.65
2023-04-21T12:12:31.828Z,17.40
2023-04-21T12:15:04.572Z,17.96
2023-04-21T12:17:38.482Z,17.58
2023-04-21T12:20:09.761Z,17.47
2023-04-21T12:22:38.188Z,18.05
2023-04-21T12:25:07.414Z,18.21
2023-04-21T12:27:35.807Z,18.15
2023-04-21T12:30:04.641Z,18.22
2023-04-21T12:32:33.279Z,17.97
2023-04-21T12:35:02.322Z,18.43
2023-04-21T12:37:32.155Z,18.54
2023-04-21T12:40:00.483Z,18.54
2023-04-21T12:42:28.739Z,18.73
2023-04-21T12:44:57.018Z,18.97
2023-04-21T12:47:25.409Z,18.87
2023-04-21T12:49:53.676Z,18.46
2023-04-21T12:52:22.009Z,18.52
2023-04-21T12:54:51.646Z,18.20
2023-04-21T12:57:20.385Z,18.30
2023-04-21T12:59:49.112Z,17.76
2023-04-21T13:02:17.763Z,18.70
2023-04-21T13:04:46.256Z,18.93
2023-04-21T13:07:16.182Z,18.84
2023-04-21T13:09:44.824Z,18.50
2023-04-21T13:12:14.467Z,18.21
2023-04-21T13:14:42.811Z,18.24
2023-04-21T13:17:11.339Z,18.66
2023-04-21T13:19:39.678Z,18.73
2023-04-21T13:22:08.049Z,18.91
2023-04-21T13:24:36.495Z,18.43
2023-04-21T13:27:04.863Z,18.81
2023-04-21T13:29:35.025Z,18.87
2023-04-21T13:32:03.508Z,19.80
2023-04-21T13:34:32.992Z,19.10
2023-04-21T13:37:01.658Z,19.16
2023-04-21T13:39:30.436Z,19.05
2023-04-21T13:41:58.900Z,17.92
2023-04-21T13:44:27.378Z,17.85
2023-04-21T13:46:57.447Z,17.48
2023-04-21T13:49:25.876Z,17.18
2023-04-21T13:51:54.131Z,17.33
2023-04-21T13:54:22.734Z,17.22
2023-04-21T13:56:51.156Z,17.38
2023-04-21T13:59:21.103Z,17.31
2023-04-21T14:01:49.461Z,17.26
2023-04-21T14:04:21.230Z,17.51
2023-04-21T14:06:51.577Z,18.05
2023-04-21T14:09:20.030Z,17.76
2023-04-21T14:11:48.837Z,17.98
2023-04-21T14:14:27.655Z,17.59
2023-04-21T14:17:05.750Z,17.35
2023-04-21T14:19:35.988Z,17.73
2023-04-21T14:22:04.643Z,17.72
2023-04-21T14:24:33.001Z,17.50
2023-04-21T14:27:01.287Z,17.87
2023-04-21T14:29:29.540Z,18.17
2023-04-21T14:32:00.789Z,18.12
2023-04-21T14:34:29.179Z,18.14
2023-04-21T14:36:59.788Z,17.90
2023-04-21T14:39:28.327Z,17.95
2023-04-21T14:41:57.012Z,17.55
2023-04-21T14:44:25.291Z,17.68
2023-04-21T14:47:05.464Z,17.67
2023-04-21T14:49:37.390Z,18.04
2023-04-21T14:52:07.904Z,18.65
2023-04-21T14:54:36.406Z,18.78
2023-04-21T14:57:18.789Z,19.55
2023-04-21T14:59:49.205Z,18.58
2023-04-21T15:02:17.651Z,18.87
2023-04-21T15:04:46.075Z,18.17
2023-04-21T15:07:19.884Z,18.84
2023-04-21T15:09:52.222Z,18.58
2023-04-21T15:12:20.582Z,18.26
2023-04-21T15:14:48.900Z,19.33
2023-04-21T15:17:17.169Z,20.13
2023-04-21T15:19:45.446Z,20.68
2023-04-21T15:22:15.543Z,20.66
2023-04-21T15:24:44.017Z,20.61
2023-04-21T15:27:12.610Z,21.20
2023-04-21T15:29:41.109Z,20.66
2023-04-21T15:32:09.631Z,19.05
2023-04-21T15:34:37.945Z,18.15
2023-04-21T15:37:06.817Z,18.38
2023-04-21T15:39:36.864Z,20.22
2023-04-21T15:42:05.801Z,19.94
2023-04-21T15:44:34.939Z,20.24
2023-04-21T15:47:03.325Z,20.88
2023-04-21T15:49:31.846Z,21.52
2023-04-21T15:52:00.239Z,21.11
2023-04-21T15:54:28.788Z,20.68
2023-04-21T15:56:58.743Z,20.74
2023-04-21T15:59:27.369Z,21.91
2023-04-21T16:01:56.875Z,22.09
2023-04-21T16:04:25.425Z,20.51
2023-04-21T16:06:54.051Z,20.70
2023-04-21T16:09:22.537Z,20.20
2023-04-21T16:11:51.528Z,20.15
2023-04-21T16:14:21.405Z,20.62
2023-04-21T16:16:49.746Z,21.30
2023-04-21T16:19:18.138Z,20.83
2023-04-21T16:21:46.442Z,20.66
2023-04-21T16:24:14.869Z,20.63
2023-04-21T16:26:43.226Z,20.73
2023-04-21T16:29:11.838Z,19.97
2023-04-21T16:31:41.590Z,20.87
2023-04-21T16:34:09.953Z,21.39
2023-04-21T16:36:38.262Z,20.27
2023-04-21T16:39:06.887Z,20.09
2023-04-21T16:41:35.168Z,18.93
2023-04-21T16:44:03.621Z,17.67
2023-04-21T16:46:31.991Z,17.60
2023-04-21T16:49:01.714Z,17.40
2023-04-21T16:51:29.993Z,17.15
2023-04-21T16:53:58.483Z,17.21
2023-04-21T16:56:26.788Z,17.38
2023-04-21T16:58:55.217Z,17.73
2023-04-21T17:01:23.546Z,18.98
2023-04-21T17:03:52.106Z,19.24
2023-04-21T17:06:21.959Z,18.79
2023-04-21T17:08:50.229Z,17.76
2023-04-21T17:11:18.544Z,17.17
2023-04-21T17:13:46.887Z,16.49
2023-04-21T17:16:15.239Z,14.08
2023-04-21T17:18:43.560Z,9.50
2023-04-21T17:21:12.687Z,9.67
2023-04-21T17:23:42.307Z,9.64
2023-04-21T17:26:13.130Z,9.05
2023-04-21T17:28:42.052Z,9.04
2023-04-21T17:31:15.595Z,9.01
2023-04-21T17:33:45.166Z,9.04
2023-04-21T17:36:13.551Z,9.11
2023-04-21T17:38:43.273Z,8.90
2023-04-21T17:41:11.727Z,8.97
2023-04-21T17:43:40.032Z,8.97
2023-04-21T17:46:09.225Z,8.91
2023-04-21T17:48:37.498Z,8.95
2023-04-21T17:51:05.905Z,9.01
2023-04-21T17:53:34.622Z,9.04
2023-04-21T17:56:04.332Z,8.94
2023-04-21T17:58:32.631Z,8.96
2023-04-21T18:01:00.947Z,8.91
2023-04-21T18:03:29.537Z,8.95
2023-04-21T18:05:58.430Z,8.79
2023-04-21T18:08:26.943Z,8.79
2023-04-21T18:10:56.018Z,8.64
2023-04-21T18:13:25.729Z,8.87
2023-04-21T18:15:54.058Z,8.91
2023-04-21T18:18:22.403Z,8.89
2023-04-21T18:20:50.688Z,8.87
2023-04-21T18:23:18.996Z,8.93
2023-04-21T18:25:47.651Z,8.88
2023-04-21T18:28:16.021Z,8.95
2023-04-21T18:30:45.686Z,8.96
2023-04-21T18:33:14.047Z,8.83
2023-04-21T18:35:42.944Z,8.74
2023-04-21T18:38:11.896Z,8.79
2023-04-21T18:40:41.385Z,8.86
2023-04-21T18:43:10.929Z,8.90
2023-04-21T18:45:39.648Z,8.76
2023-04-21T18:48:09.579Z,8.73
2023-04-21T18:50:40.325Z,8.88
2023-04-21T18:53:09.608Z,8.86
2023-04-21T18:55:38.482Z,8.77
2023-04-21T18:58:07.088Z,8.91
2023-04-21T19:00:38.827Z,8.85
2023-04-21T19:03:07.779Z,9.02
2023-04-21T19:05:40.492Z,9.04
2023-04-21T19:08:10.326Z,9.09
2023-04-21T19:10:39.181Z,9.23
2023-04-21T19:13:07.506Z,9.23
2023-04-21T19:15:36.686Z,9.35
2023-04-21T19:18:05.292Z,9.25
2023-04-21T19:20:35.655Z,9.32
2023-04-21T19:23:06.130Z,9.04
2023-04-21T19:25:34.887Z,9.10
2023-04-21T19:28:03.243Z,9.17
2023-04-21T19:30:31.612Z,9.18
2023-04-21T19:32:59.873Z,9.23
2023-04-21T19:35:28.801Z,9.14
2023-04-21T19:37:57.072Z,9.21
2023-04-21T19:40:27.036Z,9.29
2023-04-21T19:42:55.748Z,9.25
2023-04-21T19:45:24.066Z,9.29
2023-04-21T19:47:52.724Z,9.30
2023-04-21T19:50:21.400Z,9.06
2023-04-21T19:52:49.676Z,9.17
2023-04-21T19:55:17.959Z,9.36
2023-04-21T19:57:47.586Z,9.23
2023-04-21T20:00:16.878Z,9.17
2023-04-21T20:02:45.294Z,8.95
2023-04-21T20:05:14.039Z,8.81
2023-04-21T20:07:42.315Z,8.93
2023-04-21T20:10:11.856Z,9.18
2023-04-21T20:12:40.205Z,9.01
2023-04-21T20:15:11.916Z,8.94
2023-04-21T20:17:41.490Z,8.92
2023-04-21T20:20:11.044Z,8.73
2023-04-21T20:22:39.495Z,8.71
2023-04-21T20:25:08.555Z,8.65
2023-04-21T20:27:36.841Z,8.72
2023-04-21T20:30:05.955Z,8.75
2023-04-21T20:32:36.613Z,8.64
2023-04-21T20:35:05.706Z,8.57
2023-04-21T20:37:34.278Z,8.63
2023-04-21T20:40:04.628Z,8.56
2023-04-21T20:42:33.446Z,8.70
2023-04-21T20:45:03.637Z,8.62
2023-04-21T20:47:35.926Z,8.70
2023-04-21T20:50:04.884Z,8.74
2023-04-21T20:52:33.196Z,8.73
2023-04-21T20:55:01.567Z,8.77
2023-04-21T20:57:30.287Z,8.71
2023-04-21T20:59:58.501Z,8.59
2023-04-21T21:02:27.009Z,8.56
2023-04-21T21:04:56.760Z,8.56
2023-04-21T21:07:25.390Z,8.37
2023-04-21T21:09:53.711Z,8.20
2023-04-21T21:12:22.261Z,8.18
2023-04-21T21:14:50.525Z,8.14
2023-04-21T21:17:18.908Z,8.08
2023-04-21T21:19:47.177Z,8.07
2023-04-21T21:22:16.849Z,7.96
2023-04-21T21:24:45.099Z,7.98
2023-04-21T21:27:13.528Z,7.91
2023-04-21T21:29:41.950Z,7.82
2023-04-21T21:32:10.281Z,7.77
2023-04-21T21:34:38.765Z,7.72
2023-04-21T21:37:07.026Z,7.77
2023-04-21T21:39:36.895Z,7.69
2023-04-21T21:42:05.828Z,7.60
2023-04-21T21:44:34.063Z,7.67
2023-04-21T21:47:02.338Z,7.59
2023-04-21T21:49:30.605Z,7.57
2023-04-21T21:51:58.969Z,7.53
2023-04-21T21:54:27.175Z,7.49
2023-04-21T21:56:57.651Z,7.37
2023-04-21T21:59:26.199Z,7.35
2023-04-21T22:01:54.567Z,7.39
2023-04-21T22:04:22.870Z,7.47
2023-04-21T22:06:52.008Z,7.39
2023-04-21T22:09:21.017Z,7.48
2023-04-21T22:11:49.379Z,7.39
2023-04-21T22:14:23.504Z,7.29
2023-04-21T22:16:54.007Z,7.23
2023-04-21T22:19:22.689Z,7.42
2023-04-21T22:21:50.997Z,7.40
2023-04-21T22:24:19.560Z,7.64
2023-04-21T22:26:48.350Z,7.52
2023-04-21T22:29:17.994Z,7.46
2023-04-21T22:31:46.357Z,7.34
2023-04-21T22:34:15.096Z,7.23
2023-04-21T22:36:43.520Z,7.20
2023-04-21T22:39:11.818Z,7.16
2023-04-21T22:41:40.290Z,7.22
2023-04-21T22:44:08.668Z,7.19
2023-04-21T22:46:38.432Z,7.22
2023-04-21T22:49:06.773Z,7.33
2023-04-21T22:51:35.067Z,7.33
2023-04-21T22:54:03.472Z,7.30
2023-04-21T22:56:32.093Z,7.29
2023-04-21T22:59:00.776Z,7.12
2023-04-21T23:01:29.195Z,7.16
2023-04-21T23:03:59.103Z,7.07
2023-04-21T23:06:28.415Z,6.98
2023-04-21T23:08:56.771Z,6.96
2023-04-21T23:11:25.344Z,6.90
2023-04-21T23:13:53.671Z,6.82
2023-04-21T23:16:21.955Z,6.84
2023-04-21T23:18:50.236Z,7.01
2023-04-21T23:21:19.897Z,7.02
2023-04-21T23:23:48.112Z,7.19
2023-04-21T23:26:16.364Z,6.96
2023-04-21T23:28:44.633Z,7.10
2023-04-21T23:31:12.914Z,7.04
2023-04-21T23:33:41.252Z,6.99
2023-04-21T23:36:09.675Z,6.93
2023-04-21T23:38:39.297Z,6.90
2023-04-21T23:41:07.636Z,6.84
2023-04-21T23:43:37.289Z,6.81
2023-04-21T23:46:05.613Z,6.82
2023-04-21T23:48:34.847Z,6.75
2023-04-21T23:51:03.219Z,6.76
2023-04-21T23:53:31.621Z,6.73
2023-04-21T23:56:01.403Z,6.76
2023-04-21T23:58:29.650Z,6.73
